sensor_id;sensor_type;location;lat;lon;timestamp;P1;durP1;ratioP1;P2;durP2;ratioP2
8580;SDS011;4328;48.622;9.230;2023-06-26T00:02:12;7.60;;;6.80;;
8580;SDS011;4328;48.622;9.230;2023-06-26T00:04:38;7.33;;;6.73;;
8580;SDS011;4328;48.622;9.230;2023-06-26T00:07:05;7.60;;;6.80;;
8580;SDS011;4328;48.622;9.230;2023-06-26T00:09:31;7.60;;;6.97;;
8580;SDS011;4328;48.622;9.230;2023-06-26T00:11:58;7.20;;;6.50;;
8580;SDS011;4328;48.622;9.230;2023-06-26T00:14:26;9.43;;;6.97;;
8580;SDS011;4328;48.622;9.230;2023-06-26T00:16:53;7.20;;;6.50;;
8580;SDS011;4328;48.622;9.230;2023-06-26T00:19:19;7.50;;;6.80;;
8580;SDS011;4328;48.622;9.230;2023-06-26T00:21:45;7.70;;;6.97;;
8580;SDS011;4328;48.622;9.230;2023-06-26T00:24:12;7.17;;;6.50;;
8580;SDS011;4328;48.622;9.230;2023-06-26T00:26:39;7.60;;;6.90;;
8580;SDS011;4328;48.622;9.230;2023-06-26T00:29:05;7.47;;;6.87;;
8580;SDS011;4328;48.622;9.230;2023-06-26T00:31:33;7.90;;;7.20;;
8580;SDS011;4328;48.622;9.230;2023-06-26T00:34:00;7.73;;;7.03;;
8580;SDS011;4328;48.622;9.230;2023-06-26T00:36:26;7.70;;;7.00;;
8580;SDS011;4328;48.622;9.230;2023-06-26T00:38:53;7.83;;;7.10;;
8580;SDS011;4328;48.622;9.230;2023-06-26T00:41:19;7.23;;;6.63;;
8580;SDS011;4328;48.622;9.230;2023-06-26T00:43:45;8.07;;;7.27;;
8580;SDS011;4328;48.622;9.230;2023-06-26T00:46:12;7.87;;;7.17;;
8580;SDS011;4328;48.622;9.230;2023-06-26T00:48:41;8.67;;;7.30;;
8580;SDS011;4328;48.622;9.230;2023-06-26T00:51:07;7.47;;;6.87;;
8580;SDS011;4328;48.622;9.230;2023-06-26T00:53:34;7.67;;;6.93;;
8580;SDS011;4328;48.622;9.230;2023-06-26T00:56:01;9.17;;;6.53;;
8580;SDS011;4328;48.622;9.230;2023-06-26T00:58:28;7.77;;;6.97;;
8580;SDS011;4328;48.622;9.230;2023-06-26T01:00:54;7.70;;;6.90;;
8580;SDS011;4328;48.622;9.230;2023-06-26T01:03:21;7.63;;;6.93;;
8580;SDS011;4328;48.622;9.230;2023-06-26T01:05:49;7.00;;;6.40;;
8580;SDS011;4328;48.622;9.230;2023-06-26T01:08:16;8.13;;;7.23;;
8580;SDS011;4328;48.622;9.230;2023-06-26T01:10:43;7.30;;;6.60;;
8580;SDS011;4328;48.622;9.230;2023-06-26T01:13:10;7.40;;;6.80;;
8580;SDS011;4328;48.622;9.230;2023-06-26T01:15:37;7.40;;;6.70;;
8580;SDS011;4328;48.622;9.230;2023-06-26T01:18:03;7.93;;;7.20;;
8580;SDS011;4328;48.622;9.230;2023-06-26T01:20:31;7.30;;;6.70;;
8580;SDS011;4328;48.622;9.230;2023-06-26T01:23:01;7.43;;;6.73;;
8580;SDS011;4328;48.622;9.230;2023-06-26T01:25:32;7.60;;;6.90;;
8580;SDS011;4328;48.622;9.230;2023-06-26T01:28:05;7.40;;;6.70;;
8580;SDS011;4328;48.622;9.230;2023-06-26T01:30:32;8.73;;;7.20;;
8580;SDS011;4328;48.622;9.230;2023-06-26T01:32:58;7.60;;;6.80;;
8580;SDS011;4328;48.622;9.230;2023-06-26T01:35:25;7.10;;;6.50;;
8580;SDS011;4328;48.622;9.230;2023-06-26T01:37:52;7.63;;;6.93;;
8580;SDS011;4328;48.622;9.230;2023-06-26T01:40:19;7.20;;;6.50;;
8580;SDS011;4328;48.622;9.230;2023-06-26T01:42:45;7.80;;;7.10;;
8580;SDS011;4328;48.622;9.230;2023-06-26T01:45:14;7.87;;;7.13;;
8580;SDS011;4328;48.622;9.230;2023-06-26T01:47:44;7.93;;;7.13;;
8580;SDS011;4328;48.622;9.230;2023-06-26T01:50:12;8.10;;;7.20;;
8580;SDS011;4328;48.622;9.230;2023-06-26T01:52:40;7.40;;;6.80;;
8580;SDS011;4328;48.622;9.230;2023-06-26T01:55:09;8.10;;;6.70;;
8580;SDS011;4328;48.622;9.230;2023-06-26T01:57:37;7.87;;;7.07;;
8580;SDS011;4328;48.622;9.230;2023-06-26T02:00:05;7.97;;;7.17;;
8580;SDS011;4328;48.622;9.230;2023-06-26T02:02:36;7.80;;;7.00;;
8580;SDS011;4328;48.622;9.230;2023-06-26T02:05:02;8.10;;;7.00;;
8580;SDS011;4328;48.622;9.230;2023-06-26T02:07:29;7.57;;;6.87;;
8580;SDS011;4328;48.622;9.230;2023-06-26T02:09:55;8.87;;;6.93;;
8580;SDS011;4328;48.622;9.230;2023-06-26T02:12:22;8.47;;;7.67;;
8580;SDS011;4328;48.622;9.230;2023-06-26T02:14:48;9.27;;;6.93;;
8580;SDS011;4328;48.622;9.230;2023-06-26T02:17:16;8.37;;;7.30;;
8580;SDS011;4328;48.622;9.230;2023-06-26T02:19:44;8.10;;;7.40;;
8580;SDS011;4328;48.622;9.230;2023-06-26T02:22:12;8.37;;;7.57;;
8580;SDS011;4328;48.622;9.230;2023-06-26T02:24:38;7.53;;;6.77;;
8580;SDS011;4328;48.622;9.230;2023-06-26T02:27:05;8.03;;;7.33;;
8580;SDS011;4328;48.622;9.230;2023-06-26T02:29:31;8.50;;;7.70;;
8580;SDS011;4328;48.622;9.230;2023-06-26T02:31:58;7.93;;;7.13;;
8580;SDS011;4328;48.622;9.230;2023-06-26T02:34:24;7.97;;;6.70;;
8580;SDS011;4328;48.622;9.230;2023-06-26T02:36:52;7.53;;;6.83;;
8580;SDS011;4328;48.622;9.230;2023-06-26T02:39:19;7.97;;;7.27;;
8580;SDS011;4328;48.622;9.230;2023-06-26T02:41:46;8.10;;;7.30;;
8580;SDS011;4328;48.622;9.230;2023-06-26T02:44:12;7.60;;;6.90;;
8580;SDS011;4328;48.622;9.230;2023-06-26T02:46:39;8.83;;;6.47;;
8580;SDS011;4328;48.622;9.230;2023-06-26T02:49:05;7.63;;;6.83;;
8580;SDS011;4328;48.622;9.230;2023-06-26T02:51:32;7.93;;;7.13;;
8580;SDS011;4328;48.622;9.230;2023-06-26T02:54:00;8.27;;;7.47;;
8580;SDS011;4328;48.622;9.230;2023-06-26T02:56:26;7.97;;;7.20;;
8580;SDS011;4328;48.622;9.230;2023-06-26T02:58:54;7.93;;;7.13;;
8580;SDS011;4328;48.622;9.230;2023-06-26T03:01:20;8.13;;;7.03;;
8580;SDS011;4328;48.622;9.230;2023-06-26T03:03:46;7.57;;;6.87;;
8580;SDS011;4328;48.622;9.230;2023-06-26T03:06:13;8.33;;;7.53;;
8580;SDS011;4328;48.622;9.230;2023-06-26T03:08:40;8.37;;;7.53;;
8580;SDS011;4328;48.622;9.230;2023-06-26T03:11:08;8.57;;;7.40;;
8580;SDS011;4328;48.622;9.230;2023-06-26T03:13:35;7.63;;;6.93;;
8580;SDS011;4328;48.622;9.230;2023-06-26T03:16:01;8.50;;;7.70;;
8580;SDS011;4328;48.622;9.230;2023-06-26T03:18:28;7.93;;;7.23;;
8580;SDS011;4328;48.622;9.230;2023-06-26T03:20:54;8.00;;;7.20;;
8580;SDS011;4328;48.622;9.230;2023-06-26T03:23:21;8.40;;;7.43;;
8580;SDS011;4328;48.622;9.230;2023-06-26T03:25:48;8.63;;;7.20;;
8580;SDS011;4328;48.622;9.230;2023-06-26T03:28:15;8.10;;;7.40;;
8580;SDS011;4328;48.622;9.230;2023-06-26T03:30:42;8.03;;;7.23;;
8580;SDS011;4328;48.622;9.230;2023-06-26T03:33:08;8.70;;;7.90;;
8580;SDS011;4328;48.622;9.230;2023-06-26T03:35:35;8.57;;;7.60;;
8580;SDS011;4328;48.622;9.230;2023-06-26T03:38:01;9.40;;;7.53;;
8580;SDS011;4328;48.622;9.230;2023-06-26T03:40:28;7.90;;;7.10;;
8580;SDS011;4328;48.622;9.230;2023-06-26T03:42:54;8.63;;;7.83;;
8580;SDS011;4328;48.622;9.230;2023-06-26T03:45:22;7.40;;;6.70;;
8580;SDS011;4328;48.622;9.230;2023-06-26T03:47:48;7.23;;;6.60;;
8580;SDS011;4328;48.622;9.230;2023-06-26T03:50:15;8.27;;;7.53;;
8580;SDS011;4328;48.622;9.230;2023-06-26T03:52:41;7.67;;;6.97;;
8580;SDS011;4328;48.622;9.230;2023-06-26T03:55:08;7.87;;;7.07;;
8580;SDS011;4328;48.622;9.230;2023-06-26T03:57:34;8.37;;;7.57;;
8580;SDS011;4328;48.622;9.230;2023-06-26T04:00:00;8.73;;;7.60;;
8580;SDS011;4328;48.622;9.230;2023-06-26T04:02:32;8.53;;;7.07;;
8580;SDS011;4328;48.622;9.230;2023-06-26T04:04:58;8.23;;;7.53;;
8580;SDS011;4328;48.622;9.230;2023-06-26T04:07:25;8.67;;;7.80;;
8580;SDS011;4328;48.622;9.230;2023-06-26T04:09:51;7.80;;;7.10;;
8580;SDS011;4328;48.622;9.230;2023-06-26T04:12:18;8.47;;;7.67;;
8580;SDS011;4328;48.622;9.230;2023-06-26T04:14:44;8.00;;;7.23;;
8580;SDS011;4328;48.622;9.230;2023-06-26T04:17:11;8.23;;;7.43;;
8580;SDS011;4328;48.622;9.230;2023-06-26T04:19:38;8.17;;;7.37;;
8580;SDS011;4328;48.622;9.230;2023-06-26T04:22:05;7.67;;;6.87;;
8580;SDS011;4328;48.622;9.230;2023-06-26T04:24:31;8.40;;;7.60;;
8580;SDS011;4328;48.622;9.230;2023-06-26T04:26:58;7.90;;;7.07;;
8580;SDS011;4328;48.622;9.230;2023-06-26T04:29:25;8.03;;;7.33;;
8580;SDS011;4328;48.622;9.230;2023-06-26T04:31:52;8.07;;;7.27;;
8580;SDS011;4328;48.622;9.230;2023-06-26T04:34:22;8.17;;;7.37;;
8580;SDS011;4328;48.622;9.230;2023-06-26T04:36:50;8.13;;;7.43;;
8580;SDS011;4328;48.622;9.230;2023-06-26T04:39:17;8.57;;;7.57;;
8580;SDS011;4328;48.622;9.230;2023-06-26T04:41:43;8.43;;;7.63;;
8580;SDS011;4328;48.622;9.230;2023-06-26T04:44:10;9.37;;;7.80;;
8580;SDS011;4328;48.622;9.230;2023-06-26T04:46:36;8.13;;;7.30;;
8580;SDS011;4328;48.622;9.230;2023-06-26T04:49:06;8.63;;;7.60;;
8580;SDS011;4328;48.622;9.230;2023-06-26T04:51:32;8.23;;;7.53;;
8580;SDS011;4328;48.622;9.230;2023-06-26T04:54:00;8.13;;;7.43;;
8580;SDS011;4328;48.622;9.230;2023-06-26T04:56:26;9.20;;;7.20;;
8580;SDS011;4328;48.622;9.230;2023-06-26T04:58:53;8.23;;;7.47;;
8580;SDS011;4328;48.622;9.230;2023-06-26T05:01:19;9.80;;;7.53;;
8580;SDS011;4328;48.622;9.230;2023-06-26T05:03:46;8.43;;;7.63;;
8580;SDS011;4328;48.622;9.230;2023-06-26T05:06:12;8.57;;;7.40;;
8580;SDS011;4328;48.622;9.230;2023-06-26T05:08:39;8.97;;;7.80;;
8580;SDS011;4328;48.622;9.230;2023-06-26T05:11:07;8.47;;;7.70;;
8580;SDS011;4328;48.622;9.230;2023-06-26T05:13:33;8.67;;;7.60;;
8580;SDS011;4328;48.622;9.230;2023-06-26T05:16:00;8.00;;;7.30;;
8580;SDS011;4328;48.622;9.230;2023-06-26T05:18:26;9.27;;;7.43;;
8580;SDS011;4328;48.622;9.230;2023-06-26T05:20:53;8.10;;;7.27;;
8580;SDS011;4328;48.622;9.230;2023-06-26T05:23:19;7.93;;;7.23;;
8580;SDS011;4328;48.622;9.230;2023-06-26T05:25:46;7.70;;;7.07;;
8580;SDS011;4328;48.622;9.230;2023-06-26T05:28:14;8.77;;;7.87;;
8580;SDS011;4328;48.622;9.230;2023-06-26T05:30:41;9.57;;;7.90;;
8580;SDS011;4328;48.622;9.230;2023-06-26T05:33:08;7.47;;;6.77;;
8580;SDS011;4328;48.622;9.230;2023-06-26T05:35:36;8.80;;;8.00;;
8580;SDS011;4328;48.622;9.230;2023-06-26T05:38:03;7.83;;;7.13;;
8580;SDS011;4328;48.622;9.230;2023-06-26T05:40:29;7.63;;;6.93;;
8580;SDS011;4328;48.622;9.230;2023-06-26T05:42:56;8.50;;;6.83;;
8580;SDS011;4328;48.622;9.230;2023-06-26T05:45:24;7.13;;;6.53;;
8580;SDS011;4328;48.622;9.230;2023-06-26T05:47:50;7.67;;;7.03;;
8580;SDS011;4328;48.622;9.230;2023-06-26T05:50:17;7.97;;;7.17;;
8580;SDS011;4328;48.622;9.230;2023-06-26T05:52:44;8.13;;;7.33;;
8580;SDS011;4328;48.622;9.230;2023-06-26T05:55:11;7.57;;;6.87;;
8580;SDS011;4328;48.622;9.230;2023-06-26T05:57:38;8.20;;;7.10;;
8580;SDS011;4328;48.622;9.230;2023-06-26T06:00:06;7.33;;;6.53;;
8580;SDS011;4328;48.622;9.230;2023-06-26T06:02:37;6.93;;;6.33;;
8580;SDS011;4328;48.622;9.230;2023-06-26T06:05:04;7.17;;;6.57;;
8580;SDS011;4328;48.622;9.230;2023-06-26T06:07:30;7.70;;;7.00;;
8580;SDS011;4328;48.622;9.230;2023-06-26T06:09:57;7.80;;;7.03;;
8580;SDS011;4328;48.622;9.230;2023-06-26T06:12:23;8.13;;;7.37;;
8580;SDS011;4328;48.622;9.230;2023-06-26T06:14:50;6.30;;;5.80;;
8580;SDS011;4328;48.622;9.230;2023-06-26T06:17:16;6.73;;;6.10;;
8580;SDS011;4328;48.622;9.230;2023-06-26T06:19:44;6.67;;;6.07;;
8580;SDS011;4328;48.622;9.230;2023-06-26T06:22:11;6.03;;;5.53;;
8580;SDS011;4328;48.622;9.230;2023-06-26T06:24:37;6.63;;;6.03;;
8580;SDS011;4328;48.622;9.230;2023-06-26T06:27:03;6.87;;;6.13;;
8580;SDS011;4328;48.622;9.230;2023-06-26T06:29:30;7.23;;;5.97;;
8580;SDS011;4328;48.622;9.230;2023-06-26T06:31:56;7.00;;;5.87;;
8580;SDS011;4328;48.622;9.230;2023-06-26T06:34:23;6.07;;;5.57;;
8580;SDS011;4328;48.622;9.230;2023-06-26T06:36:50;6.53;;;5.77;;
8580;SDS011;4328;48.622;9.230;2023-06-26T06:39:17;5.23;;;4.83;;
8580;SDS011;4328;48.622;9.230;2023-06-26T06:41:43;6.37;;;5.77;;
8580;SDS011;4328;48.622;9.230;2023-06-26T06:44:09;5.83;;;5.33;;
8580;SDS011;4328;48.622;9.230;2023-06-26T06:46:36;5.77;;;5.27;;
8580;SDS011;4328;48.622;9.230;2023-06-26T06:49:02;5.70;;;5.20;;
8580;SDS011;4328;48.622;9.230;2023-06-26T06:51:29;5.03;;;4.63;;
8580;SDS011;4328;48.622;9.230;2023-06-26T06:53:57;5.60;;;5.10;;
8580;SDS011;4328;48.622;9.230;2023-06-26T06:56:23;5.80;;;5.30;;
8580;SDS011;4328;48.622;9.230;2023-06-26T06:58:50;5.80;;;5.30;;
8580;SDS011;4328;48.622;9.230;2023-06-26T07:01:16;5.07;;;4.67;;
8580;SDS011;4328;48.622;9.230;2023-06-26T07:03:42;5.37;;;4.97;;
8580;SDS011;4328;48.622;9.230;2023-06-26T07:06:09;5.47;;;4.97;;
8580;SDS011;4328;48.622;9.230;2023-06-26T07:08:35;5.70;;;4.80;;
8580;SDS011;4328;48.622;9.230;2023-06-26T07:11:03;5.30;;;4.90;;
8580;SDS011;4328;48.622;9.230;2023-06-26T07:13:30;5.07;;;4.67;;
8580;SDS011;4328;48.622;9.230;2023-06-26T07:15:56;5.87;;;5.17;;
8580;SDS011;4328;48.622;9.230;2023-06-26T07:18:23;4.93;;;4.53;;
8580;SDS011;4328;48.622;9.230;2023-06-26T07:20:49;5.10;;;4.70;;
8580;SDS011;4328;48.622;9.230;2023-06-26T07:23:16;5.50;;;5.00;;
8580;SDS011;4328;48.622;9.230;2023-06-26T07:25:42;5.35;;;4.85;;
8580;SDS011;4328;48.622;9.230;2023-06-26T07:28:13;5.80;;;5.13;;
8580;SDS011;4328;48.622;9.230;2023-06-26T07:30:39;9.43;;;8.73;;
8580;SDS011;4328;48.622;9.230;2023-06-26T07:33:06;7.53;;;6.90;;
8580;SDS011;4328;48.622;9.230;2023-06-26T07:35:32;5.75;;;5.25;;
8580;SDS011;4328;48.622;9.230;2023-06-26T07:37:59;16.80;;;15.40;;
8580;SDS011;4328;48.622;9.230;2023-06-26T07:40:26;7.30;;;6.78;;
8580;SDS011;4328;48.622;9.230;2023-06-26T07:42:52;5.68;;;5.25;;
8580;SDS011;4328;48.622;9.230;2023-06-26T07:45:20;5.53;;;5.13;;
8580;SDS011;4328;48.622;9.230;2023-06-26T07:47:47;7.75;;;6.15;;
8580;SDS011;4328;48.622;9.230;2023-06-26T07:50:13;11.02;;;10.23;;
8580;SDS011;4328;48.622;9.230;2023-06-26T07:52:44;4.82;;;4.43;;
8580;SDS011;4328;48.622;9.230;2023-06-26T07:55:10;5.40;;;4.88;;
8580;SDS011;4328;48.622;9.230;2023-06-26T07:57:37;6.20;;;5.70;;
8580;SDS011;4328;48.622;9.230;2023-06-26T08:00:04;5.13;;;4.78;;
8580;SDS011;4328;48.622;9.230;2023-06-26T08:02:33;5.60;;;4.80;;
8580;SDS011;4328;48.622;9.230;2023-06-26T08:04:59;5.40;;;4.68;;
8580;SDS011;4328;48.622;9.230;2023-06-26T08:07:25;5.07;;;4.68;;
8580;SDS011;4328;48.622;9.230;2023-06-26T08:09:52;4.90;;;4.60;;
8580;SDS011;4328;48.622;9.230;2023-06-26T08:12:18;4.80;;;4.50;;
8580;SDS011;4328;48.622;9.230;2023-06-26T08:14:45;5.00;;;4.57;;
8580;SDS011;4328;48.622;9.230;2023-06-26T08:17:11;5.22;;;4.72;;
8580;SDS011;4328;48.622;9.230;2023-06-26T08:19:39;4.88;;;4.57;;
8580;SDS011;4328;48.622;9.230;2023-06-26T08:22:05;4.80;;;4.40;;
8580;SDS011;4328;48.622;9.230;2023-06-26T08:24:32;4.70;;;4.40;;
8580;SDS011;4328;48.622;9.230;2023-06-26T08:26:58;5.15;;;4.60;;
8580;SDS011;4328;48.622;9.230;2023-06-26T08:29:25;4.93;;;4.63;;
8580;SDS011;4328;48.622;9.230;2023-06-26T08:31:51;4.82;;;4.43;;
8580;SDS011;4328;48.622;9.230;2023-06-26T08:34:18;4.65;;;4.30;;
8580;SDS011;4328;48.622;9.230;2023-06-26T08:36:45;4.57;;;4.20;;
8580;SDS011;4328;48.622;9.230;2023-06-26T08:39:12;4.18;;;3.88;;
8580;SDS011;4328;48.622;9.230;2023-06-26T08:41:38;4.55;;;4.10;;
8580;SDS011;4328;48.622;9.230;2023-06-26T08:44:04;4.30;;;4.00;;
8580;SDS011;4328;48.622;9.230;2023-06-26T08:46:31;4.40;;;4.10;;
8580;SDS011;4328;48.622;9.230;2023-06-26T08:49:00;4.38;;;4.07;;
8580;SDS011;4328;48.622;9.230;2023-06-26T08:51:27;4.47;;;4.18;;
8580;SDS011;4328;48.622;9.230;2023-06-26T08:53:57;4.43;;;4.03;;
8580;SDS011;4328;48.622;9.230;2023-06-26T08:56:24;4.55;;;4.20;;
8580;SDS011;4328;48.622;9.230;2023-06-26T08:58:50;4.53;;;4.22;;
8580;SDS011;4328;48.622;9.230;2023-06-26T09:01:17;3.97;;;3.67;;
8580;SDS011;4328;48.622;9.230;2023-06-26T09:03:44;5.13;;;4.10;;
8580;SDS011;4328;48.622;9.230;2023-06-26T09:06:10;4.32;;;4.03;;
8580;SDS011;4328;48.622;9.230;2023-06-26T09:08:37;9.52;;;4.70;;
8580;SDS011;4328;48.622;9.230;2023-06-26T09:11:04;4.07;;;3.85;;
8580;SDS011;4328;48.622;9.230;2023-06-26T09:13:31;4.45;;;4.15;;
8580;SDS011;4328;48.622;9.230;2023-06-26T09:15:58;5.13;;;3.47;;
8580;SDS011;4328;48.622;9.230;2023-06-26T09:18:24;4.22;;;4.00;;
8580;SDS011;4328;48.622;9.230;2023-06-26T09:20:51;4.25;;;3.95;;
8580;SDS011;4328;48.622;9.230;2023-06-26T09:23:17;4.35;;;4.05;;
8580;SDS011;4328;48.622;9.230;2023-06-26T09:25:44;4.10;;;3.70;;
8580;SDS011;4328;48.622;9.230;2023-06-26T09:28:14;4.15;;;3.85;;
8580;SDS011;4328;48.622;9.230;2023-06-26T09:30:41;5.63;;;4.05;;
8580;SDS011;4328;48.622;9.230;2023-06-26T09:33:14;4.40;;;4.10;;
8580;SDS011;4328;48.622;9.230;2023-06-26T09:35:41;4.43;;;4.03;;
8580;SDS011;4328;48.622;9.230;2023-06-26T09:38:08;12.10;;;4.53;;
8580;SDS011;4328;48.622;9.230;2023-06-26T09:40:34;4.57;;;4.28;;
8580;SDS011;4328;48.622;9.230;2023-06-26T09:43:03;4.32;;;4.03;;
8580;SDS011;4328;48.622;9.230;2023-06-26T09:45:31;4.55;;;4.15;;
8580;SDS011;4328;48.622;9.230;2023-06-26T09:47:59;6.47;;;4.28;;
8580;SDS011;4328;48.622;9.230;2023-06-26T09:50:26;4.20;;;3.95;;
8580;SDS011;4328;48.622;9.230;2023-06-26T09:52:52;4.38;;;3.92;;
8580;SDS011;4328;48.622;9.230;2023-06-26T09:55:19;4.47;;;4.07;;
8580;SDS011;4328;48.622;9.230;2023-06-26T09:57:46;4.63;;;4.32;;
8580;SDS011;4328;48.622;9.230;2023-06-26T10:00:13;10.30;;;4.60;;
8580;SDS011;4328;48.622;9.230;2023-06-26T10:02:41;4.55;;;4.25;;
8580;SDS011;4328;48.622;9.230;2023-06-26T10:05:08;4.30;;;3.90;;
8580;SDS011;4328;48.622;9.230;2023-06-26T10:07:34;4.53;;;4.13;;
8580;SDS011;4328;48.622;9.230;2023-06-26T10:10:02;4.30;;;4.00;;
8580;SDS011;4328;48.622;9.230;2023-06-26T10:12:29;4.28;;;3.97;;
8580;SDS011;4328;48.622;9.230;2023-06-26T10:14:56;4.82;;;4.10;;
8580;SDS011;4328;48.622;9.230;2023-06-26T10:17:22;3.92;;;3.60;;
8580;SDS011;4328;48.622;9.230;2023-06-26T10:19:52;4.35;;;4.05;;
8580;SDS011;4328;48.622;9.230;2023-06-26T10:22:20;7.43;;;4.13;;
8580;SDS011;4328;48.622;9.230;2023-06-26T10:24:47;4.20;;;3.88;;
8580;SDS011;4328;48.622;9.230;2023-06-26T10:27:14;4.63;;;4.22;;
8580;SDS011;4328;48.622;9.230;2023-06-26T10:29:42;4.78;;;4.28;;
8580;SDS011;4328;48.622;9.230;2023-06-26T10:32:10;4.38;;;4.07;;
8580;SDS011;4328;48.622;9.230;2023-06-26T10:34:38;4.70;;;4.30;;
8580;SDS011;4328;48.622;9.230;2023-06-26T10:37:07;4.50;;;4.20;;
8580;SDS011;4328;48.622;9.230;2023-06-26T10:39:46;4.13;;;3.88;;
8580;SDS011;4328;48.622;9.230;2023-06-26T10:42:14;4.53;;;4.22;;
8580;SDS011;4328;48.622;9.230;2023-06-26T10:44:41;4.80;;;4.50;;
8580;SDS011;4328;48.622;9.230;2023-06-26T10:47:08;4.72;;;4.32;;
8580;SDS011;4328;48.622;9.230;2023-06-26T10:49:36;4.63;;;4.22;;
8580;SDS011;4328;48.622;9.230;2023-06-26T10:52:04;4.30;;;4.00;;
8580;SDS011;4328;48.622;9.230;2023-06-26T10:54:32;4.75;;;4.35;;
8580;SDS011;4328;48.622;9.230;2023-06-26T10:56:58;4.75;;;4.45;;
8580;SDS011;4328;48.622;9.230;2023-06-26T10:59:27;4.50;;;4.20;;
8580;SDS011;4328;48.622;9.230;2023-06-26T11:01:54;4.72;;;4.43;;
8580;SDS011;4328;48.622;9.230;2023-06-26T11:04:35;4.82;;;4.43;;
8580;SDS011;4328;48.622;9.230;2023-06-26T11:07:14;5.07;;;4.68;;
8580;SDS011;4328;48.622;9.230;2023-06-26T11:09:54;6.22;;;4.70;;
8580;SDS011;4328;48.622;9.230;2023-06-26T11:12:33;5.20;;;4.80;;
8580;SDS011;4328;48.622;9.230;2023-06-26T11:15:00;5.57;;;4.60;;
8580;SDS011;4328;48.622;9.230;2023-06-26T11:17:26;4.82;;;4.45;;
8580;SDS011;4328;48.622;9.230;2023-06-26T11:19:54;5.53;;;4.85;;
8580;SDS011;4328;48.622;9.230;2023-06-26T11:22:21;4.72;;;4.43;;
8580;SDS011;4328;48.622;9.230;2023-06-26T11:24:47;5.20;;;4.80;;
8580;SDS011;4328;48.622;9.230;2023-06-26T11:27:16;5.10;;;4.70;;
8580;SDS011;4328;48.622;9.230;2023-06-26T11:29:47;5.90;;;4.60;;
8580;SDS011;4328;48.622;9.230;2023-06-26T11:32:13;8.07;;;4.90;;
8580;SDS011;4328;48.622;9.230;2023-06-26T11:34:40;6.45;;;4.90;;
8580;SDS011;4328;48.622;9.230;2023-06-26T11:37:08;5.05;;;4.72;;
8580;SDS011;4328;48.622;9.230;2023-06-26T11:39:34;5.38;;;4.97;;
8580;SDS011;4328;48.622;9.230;2023-06-26T11:42:02;5.43;;;4.93;;
8580;SDS011;4328;48.622;9.230;2023-06-26T11:44:30;5.60;;;5.10;;
8580;SDS011;4328;48.622;9.230;2023-06-26T11:46:57;5.53;;;4.78;;
8580;SDS011;4328;48.622;9.230;2023-06-26T11:49:23;6.68;;;4.53;;
8580;SDS011;4328;48.622;9.230;2023-06-26T11:51:51;6.10;;;4.70;;
8580;SDS011;4328;48.622;9.230;2023-06-26T11:54:23;5.05;;;4.65;;
8580;SDS011;4328;48.622;9.230;2023-06-26T11:56:51;6.18;;;5.32;;
8580;SDS011;4328;48.622;9.230;2023-06-26T11:59:18;5.10;;;4.70;;
8580;SDS011;4328;48.622;9.230;2023-06-26T12:01:45;5.43;;;4.88;;
8580;SDS011;4328;48.622;9.230;2023-06-26T12:04:13;5.47;;;5.07;;
8580;SDS011;4328;48.622;9.230;2023-06-26T12:06:41;5.32;;;4.93;;
8580;SDS011;4328;48.622;9.230;2023-06-26T12:09:09;5.88;;;5.20;;
8580;SDS011;4328;48.622;9.230;2023-06-26T12:11:36;5.10;;;4.80;;
8580;SDS011;4328;48.622;9.230;2023-06-26T12:14:04;4.75;;;4.45;;
8580;SDS011;4328;48.622;9.230;2023-06-26T12:16:31;5.40;;;5.00;;
8580;SDS011;4328;48.622;9.230;2023-06-26T12:19:00;4.82;;;4.38;;
8580;SDS011;4328;48.622;9.230;2023-06-26T12:21:33;4.88;;;4.57;;
8580;SDS011;4328;48.622;9.230;2023-06-26T12:24:00;5.20;;;4.80;;
8580;SDS011;4328;48.622;9.230;2023-06-26T12:26:27;4.82;;;4.32;;
8580;SDS011;4328;48.622;9.230;2023-06-26T12:28:54;5.32;;;4.93;;
8580;SDS011;4328;48.622;9.230;2023-06-26T12:31:20;5.15;;;4.72;;
8580;SDS011;4328;48.622;9.230;2023-06-26T12:33:47;4.57;;;4.28;;
8580;SDS011;4328;48.622;9.230;2023-06-26T12:36:15;5.22;;;4.75;;
8580;SDS011;4328;48.622;9.230;2023-06-26T12:38:41;5.20;;;4.80;;
8580;SDS011;4328;48.622;9.230;2023-06-26T12:41:11;5.53;;;5.00;;
8580;SDS011;4328;48.622;9.230;2023-06-26T12:43:38;5.10;;;4.70;;
8580;SDS011;4328;48.622;9.230;2023-06-26T12:46:04;4.85;;;4.55;;
8580;SDS011;4328;48.622;9.230;2023-06-26T12:48:37;5.32;;;4.82;;
8580;SDS011;4328;48.622;9.230;2023-06-26T12:51:09;5.50;;;5.10;;
8580;SDS011;4328;48.622;9.230;2023-06-26T12:53:36;4.57;;;4.28;;
8580;SDS011;4328;48.622;9.230;2023-06-26T12:56:04;4.93;;;4.53;;
8580;SDS011;4328;48.622;9.230;2023-06-26T12:58:31;5.05;;;4.70;;
8580;SDS011;4328;48.622;9.230;2023-06-26T13:00:57;6.30;;;5.05;;
8580;SDS011;4328;48.622;9.230;2023-06-26T13:03:23;5.85;;;4.78;;
8580;SDS011;4328;48.622;9.230;2023-06-26T13:05:50;5.97;;;4.90;;
8580;SDS011;4328;48.622;9.230;2023-06-26T13:08:16;10.70;;;5.50;;
8580;SDS011;4328;48.622;9.230;2023-06-26T13:10:45;5.03;;;4.55;;
8580;SDS011;4328;48.622;9.230;2023-06-26T13:13:11;5.03;;;4.65;;
8580;SDS011;4328;48.622;9.230;2023-06-26T13:15:38;4.93;;;4.63;;
8580;SDS011;4328;48.622;9.230;2023-06-26T13:18:04;6.28;;;4.40;;
8580;SDS011;4328;48.622;9.230;2023-06-26T13:20:31;5.25;;;4.70;;
8580;SDS011;4328;48.622;9.230;2023-06-26T13:22:57;5.07;;;4.65;;
8580;SDS011;4328;48.622;9.230;2023-06-26T13:25:24;4.90;;;4.50;;
8580;SDS011;4328;48.622;9.230;2023-06-26T13:27:51;5.75;;;5.07;;
8580;SDS011;4328;48.622;9.230;2023-06-26T13:30:18;5.10;;;4.72;;
8580;SDS011;4328;48.622;9.230;2023-06-26T13:32:44;5.03;;;4.63;;
8580;SDS011;4328;48.622;9.230;2023-06-26T13:35:11;5.30;;;4.80;;
8580;SDS011;4328;48.622;9.230;2023-06-26T13:37:38;5.90;;;4.55;;
8580;SDS011;4328;48.622;9.230;2023-06-26T13:40:08;5.35;;;4.85;;
8580;SDS011;4328;48.622;9.230;2023-06-26T13:42:35;5.15;;;4.65;;
8580;SDS011;4328;48.622;9.230;2023-06-26T13:45:03;5.47;;;4.97;;
8580;SDS011;4328;48.622;9.230;2023-06-26T13:47:30;4.85;;;4.45;;
8580;SDS011;4328;48.622;9.230;2023-06-26T13:49:56;5.20;;;4.70;;
8580;SDS011;4328;48.622;9.230;2023-06-26T13:52:22;5.00;;;4.60;;
8580;SDS011;4328;48.622;9.230;2023-06-26T13:54:49;5.35;;;4.60;;
8580;SDS011;4328;48.622;9.230;2023-06-26T13:57:15;5.45;;;4.85;;
8580;SDS011;4328;48.622;9.230;2023-06-26T13:59:42;5.20;;;4.68;;
8580;SDS011;4328;48.622;9.230;2023-06-26T14:02:09;5.22;;;4.80;;
8580;SDS011;4328;48.622;9.230;2023-06-26T14:04:36;5.28;;;4.63;;
8580;SDS011;4328;48.622;9.230;2023-06-26T14:07:03;5.38;;;4.88;;
8580;SDS011;4328;48.622;9.230;2023-06-26T14:09:29;4.53;;;4.13;;
8580;SDS011;4328;48.622;9.230;2023-06-26T14:11:56;5.88;;;4.68;;
8580;SDS011;4328;48.622;9.230;2023-06-26T14:14:22;5.38;;;4.47;;
8580;SDS011;4328;48.622;9.230;2023-06-26T14:16:49;5.28;;;4.57;;
8580;SDS011;4328;48.622;9.230;2023-06-26T14:19:16;4.88;;;4.50;;
8580;SDS011;4328;48.622;9.230;2023-06-26T14:21:43;4.70;;;4.40;;
8580;SDS011;4328;48.622;9.230;2023-06-26T14:24:10;5.07;;;4.60;;
8580;SDS011;4328;48.622;9.230;2023-06-26T14:26:36;5.30;;;4.82;;
8580;SDS011;4328;48.622;9.230;2023-06-26T14:29:03;5.80;;;5.20;;
8580;SDS011;4328;48.622;9.230;2023-06-26T14:31:30;5.32;;;4.85;;
8580;SDS011;4328;48.622;9.230;2023-06-26T14:33:56;5.97;;;4.40;;
8580;SDS011;4328;48.622;9.230;2023-06-26T14:36:25;4.57;;;4.28;;
8580;SDS011;4328;48.622;9.230;2023-06-26T14:38:52;4.50;;;4.20;;
8580;SDS011;4328;48.622;9.230;2023-06-26T14:41:19;4.40;;;4.00;;
8580;SDS011;4328;48.622;9.230;2023-06-26T14:43:45;4.88;;;4.47;;
8580;SDS011;4328;48.622;9.230;2023-06-26T14:46:11;5.43;;;4.55;;
8580;SDS011;4328;48.622;9.230;2023-06-26T14:48:38;4.97;;;4.40;;
8580;SDS011;4328;48.622;9.230;2023-06-26T14:51:04;5.15;;;4.63;;
8580;SDS011;4328;48.622;9.230;2023-06-26T14:53:32;4.80;;;4.40;;
8580;SDS011;4328;48.622;9.230;2023-06-26T14:55:58;4.60;;;4.30;;
8580;SDS011;4328;48.622;9.230;2023-06-26T14:58:25;4.32;;;4.03;;
8580;SDS011;4328;48.622;9.230;2023-06-26T15:00:51;4.32;;;3.97;;
8580;SDS011;4328;48.622;9.230;2023-06-26T15:03:17;4.18;;;3.75;;
8580;SDS011;4328;48.622;9.230;2023-06-26T15:05:44;4.13;;;3.83;;
8580;SDS011;4328;48.622;9.230;2023-06-26T15:08:10;3.92;;;3.63;;
8580;SDS011;4328;48.622;9.230;2023-06-26T15:10:38;4.25;;;3.67;;
8580;SDS011;4328;48.622;9.230;2023-06-26T15:13:04;6.10;;;3.80;;
8580;SDS011;4328;48.622;9.230;2023-06-26T15:15:31;3.97;;;3.53;;